createdAt,value
2019-04-30T00:01:18.447Z,48.08
2019-04-30T00:03:59.373Z,48.38
2019-04-30T00:06:37.700Z,48.14
2019-04-30T00:09:09.850Z,48.11
2019-04-30T00:11:46.061Z,48.18
2019-04-30T00:14:19.616Z,48.57
2019-04-30T00:16:52.423Z,48.37
2019-04-30T00:19:25.876Z,48.38
2019-04-30T00:22:00.407Z,48.44
2019-04-30T00:24:35.452Z,48.58
2019-04-30T00:27:08.591Z,48.46
2019-04-30T00:29:41.482Z,48.56
2019-04-30T00:32:15.972Z,48.75
2019-04-30T00:34:48.980Z,48.83
2019-04-30T00:37:22.940Z,49.04
2019-04-30T00:39:55.853Z,48.91
2019-04-30T00:42:29.780Z,49.05
2019-04-30T00:45:06.702Z,49.12
2019-04-30T00:47:39.455Z,49.33
2019-04-30T00:50:14.848Z,49.71
2019-04-30T00:52:48.108Z,50.08
2019-04-30T00:55:21.043Z,50.04
2019-04-30T00:57:55.506Z,50.14
2019-04-30T01:00:29.792Z,50.38
2019-04-30T01:03:09.351Z,50.23
2019-04-30T01:05:44.493Z,50.48
2019-04-30T01:08:21.180Z,50.59
2019-04-30T01:10:51.649Z,50.52
2019-04-30T01:13:24.472Z,50.69
2019-04-30T01:15:58.809Z,50.72
2019-04-30T01:18:32.188Z,51.13
2019-04-30T01:21:07.848Z,50.78
2019-04-30T01:23:43.098Z,50.89
2019-04-30T01:26:14.632Z,51.10
2019-04-30T01:28:49.390Z,51.07
2019-04-30T01:31:22.517Z,51.04
2019-04-30T01:33:55.321Z,51.17
2019-04-30T01:36:29.381Z,51.17
2019-04-30T01:39:02.422Z,51.44
2019-04-30T01:41:38.662Z,51.51
2019-04-30T01:44:12.129Z,51.80
2019-04-30T01:46:48.271Z,51.78
2019-04-30T01:49:20.386Z,51.66
2019-04-30T01:51:57.331Z,51.97
2019-04-30T01:54:29.212Z,52.07
2019-04-30T01:57:19.913Z,52.16
2019-04-30T02:00:20.349Z,52.06
2019-04-30T02:02:53.337Z,52.12
2019-04-30T02:05:26.120Z,52.26
2019-04-30T02:07:59.064Z,52.40
2019-04-30T02:10:31.989Z,52.23
2019-04-30T02:13:04.914Z,52.56
2019-04-30T02:15:39.031Z,52.65
2019-04-30T02:18:12.210Z,52.87
2019-04-30T02:20:45.122Z,52.79
2019-04-30T02:23:19.599Z,52.82
2019-04-30T02:25:52.974Z,52.99
2019-04-30T02:28:25.806Z,53.01
2019-04-30T02:31:00.417Z,53.18
2019-04-30T02:33:35.150Z,53.39
2019-04-30T02:36:29.832Z,53.43
2019-04-30T02:39:02.727Z,53.68
2019-04-30T02:41:40.870Z,53.55
2019-04-30T02:44:14.640Z,53.67
2019-04-30T02:46:50.495Z,53.68
2019-04-30T02:49:24.237Z,53.79
2019-04-30T02:51:59.504Z,54.03
2019-04-30T02:54:34.740Z,54.42
2019-04-30T02:57:14.107Z,54.66
2019-04-30T03:00:13.257Z,54.97
2019-04-30T03:02:46.271Z,54.93
2019-04-30T03:05:20.563Z,55.05
2019-04-30T03:07:53.721Z,55.10
2019-04-30T03:10:26.691Z,55.40
2019-04-30T03:13:00.145Z,55.45
2019-04-30T03:15:33.105Z,56.03
2019-04-30T03:18:24.800Z,55.87
2019-04-30T03:21:03.640Z,56.12
2019-04-30T03:23:38.983Z,56.21
2019-04-30T03:26:12.973Z,56.46
2019-04-30T03:28:45.622Z,56.71
2019-04-30T03:31:22.587Z,56.67
2019-04-30T03:33:53.027Z,56.83
2019-04-30T03:36:25.873Z,57.00
2019-04-30T03:38:59.994Z,57.18
2019-04-30T03:41:34.365Z,57.10
2019-04-30T03:44:18.568Z,57.13
2019-04-30T03:46:41.684Z,57.33
2019-04-30T03:49:14.640Z,57.40
2019-04-30T03:51:49.699Z,57.55
2019-04-30T03:54:22.047Z,57.49
2019-04-30T03:56:56.578Z,57.71
2019-04-30T03:59:30.211Z,57.91
2019-04-30T04:02:20.944Z,57.87
2019-04-30T04:05:10.049Z,57.89
2019-04-30T04:07:53.033Z,58.28
2019-04-30T04:10:43.364Z,58.58
2019-04-30T04:13:16.257Z,58.90
2019-04-30T04:15:49.995Z,58.54
2019-04-30T04:18:23.172Z,58.54
2019-04-30T04:21:08.805Z,57.92
2019-04-30T04:23:32.832Z,57.66
2019-04-30T04:26:05.114Z,57.61
2019-04-30T04:28:43.119Z,56.95
2019-04-30T04:31:12.651Z,56.50
2019-04-30T04:33:45.489Z,56.30
2019-04-30T04:36:20.011Z,56.22
2019-04-30T04:38:53.214Z,56.01
2019-04-30T04:41:26.127Z,55.91
2019-04-30T04:44:00.344Z,55.94
2019-04-30T04:46:33.358Z,56.06
2019-04-30T04:49:06.216Z,55.93
2019-04-30T04:51:42.208Z,56.15
2019-04-30T04:54:13.605Z,55.51
2019-04-30T04:56:46.515Z,55.62
2019-04-30T04:59:20.154Z,55.60
2019-04-30T05:01:53.199Z,55.80
2019-04-30T05:04:26.132Z,55.95
2019-04-30T05:07:00.086Z,55.86
2019-04-30T05:09:33.153Z,55.63
2019-04-30T05:12:06.088Z,55.72
2019-04-30T05:14:38.982Z,55.33
2019-04-30T05:17:11.791Z,55.47
2019-04-30T05:19:44.749Z,55.90
2019-04-30T05:22:19.025Z,55.37
2019-04-30T05:24:52.341Z,55.31
2019-04-30T05:27:25.370Z,55.68
2019-04-30T05:29:59.582Z,55.21
2019-04-30T05:32:32.571Z,55.35
2019-04-30T05:35:06.057Z,54.83
2019-04-30T05:37:39.054Z,54.99
2019-04-30T05:40:12.901Z,54.79
2019-04-30T05:42:46.099Z,53.95
2019-04-30T05:45:19.384Z,54.46
2019-04-30T05:47:52.446Z,53.70
2019-04-30T05:50:25.388Z,53.81
2019-04-30T05:52:59.211Z,53.42
2019-04-30T05:55:33.743Z,52.26
2019-04-30T05:58:09.182Z,52.32
2019-04-30T06:00:42.792Z,52.72
2019-04-30T06:04:33.650Z,51.93
2019-04-30T06:07:39.644Z,51.30
2019-04-30T06:10:59.767Z,50.05
2019-04-30T06:13:50.575Z,49.11
2019-04-30T06:16:25.700Z,47.88
2019-04-30T06:18:58.726Z,48.19
2019-04-30T06:21:32.006Z,47.38
2019-04-30T06:24:04.810Z,47.89
2019-04-30T06:26:39.394Z,46.75
2019-04-30T06:29:18.943Z,46.61
2019-04-30T06:31:51.155Z,46.79
2019-04-30T06:34:25.270Z,45.96
2019-04-30T06:36:59.582Z,46.06
2019-04-30T06:39:35.937Z,44.92
2019-04-30T06:42:12.783Z,45.08
2019-04-30T06:44:44.341Z,44.44
2019-04-30T06:47:32.350Z,43.83
2019-04-30T06:49:56.465Z,43.85
2019-04-30T06:52:35.309Z,44.14
2019-04-30T06:55:33.683Z,43.49
2019-04-30T06:58:16.839Z,43.84
2019-04-30T07:01:09.505Z,42.80
2019-04-30T07:04:23.229Z,42.26
2019-04-30T07:07:18.298Z,42.16
2019-04-30T07:10:53.102Z,41.36
2019-04-30T07:13:36.823Z,40.94
2019-04-30T07:25:35.867Z,39.25
2019-04-30T07:28:14.655Z,39.31
2019-04-30T07:31:11.625Z,38.55
2019-04-30T07:33:50.658Z,37.39
2019-04-30T07:39:14.877Z,37.93
2019-04-30T07:42:38.214Z,37.47
2019-04-30T07:46:20.602Z,35.99
2019-04-30T07:49:56.521Z,36.35
2019-04-30T07:53:18.692Z,36.00
2019-04-30T07:57:36.186Z,34.81
2019-04-30T08:00:35.676Z,34.52
2019-04-30T08:09:38.370Z,36.89
2019-04-30T09:02:15.974Z,32.98
2019-04-30T09:05:55.047Z,32.47
2019-04-30T09:30:13.211Z,30.23
2019-04-30T09:34:20.735Z,29.93
2019-04-30T09:41:13.116Z,28.65
2019-04-30T09:54:21.982Z,26.48
2019-04-30T10:00:39.350Z,26.96
2019-04-30T10:06:39.834Z,26.74
2019-04-30T10:09:50.636Z,26.93
2019-04-30T10:13:18.421Z,26.74
2019-04-30T10:17:57.623Z,26.47
2019-04-30T10:21:23.696Z,26.43
2019-04-30T10:23:41.504Z,26.34
2019-04-30T10:26:48.404Z,26.69
2019-04-30T10:30:03.226Z,26.50
2019-04-30T10:32:40.920Z,25.77
2019-04-30T10:46:59.636Z,25.48
2019-04-30T10:50:06.873Z,25.24
2019-04-30T11:10:45.668Z,25.09
2019-04-30T11:20:47.057Z,24.31
2019-04-30T11:27:37.318Z,24.34
2019-04-30T11:37:58.407Z,24.07
2019-04-30T11:40:49.389Z,24.32
2019-04-30T11:44:09.297Z,24.74
2019-04-30T11:47:11.807Z,24.84
2019-04-30T11:50:04.299Z,24.22
2019-04-30T11:56:58.818Z,24.01
2019-04-30T12:08:10.982Z,24.21
2019-04-30T12:25:12.074Z,24.39
2019-04-30T12:28:36.947Z,23.85
2019-04-30T12:32:11.095Z,24.37
2019-04-30T12:35:10.050Z,23.59
2019-04-30T12:37:52.089Z,23.81
2019-04-30T12:40:32.397Z,23.07
2019-04-30T12:44:08.693Z,24.16
2019-04-30T12:46:50.690Z,24.65
2019-04-30T12:49:56.207Z,23.76
2019-04-30T12:52:43.648Z,24.30
2019-04-30T12:56:00.137Z,25.29
2019-04-30T12:58:58.029Z,25.54
2019-04-30T13:02:09.005Z,25.32
2019-04-30T13:05:04.051Z,24.64
2019-04-30T13:08:13.052Z,25.12
2019-04-30T13:11:30.829Z,25.28
2019-04-30T13:14:10.621Z,25.37
2019-04-30T13:17:00.189Z,25.89
2019-04-30T13:19:41.071Z,25.71
2019-04-30T13:22:21.101Z,25.65
2019-04-30T13:25:03.083Z,25.12
2019-04-30T13:28:00.499Z,25.38
2019-04-30T13:30:32.604Z,25.10
2019-04-30T13:33:54.676Z,24.61
2019-04-30T13:36:41.137Z,25.17
2019-04-30T13:39:29.261Z,25.57
2019-04-30T13:42:29.507Z,25.23
2019-04-30T13:45:08.949Z,25.45
2019-04-30T13:48:10.672Z,25.04
2019-04-30T13:50:57.326Z,24.79
2019-04-30T13:54:22.373Z,25.89
2019-04-30T13:57:34.503Z,25.73
2019-04-30T14:00:41.628Z,25.77
2019-04-30T14:06:29.759Z,24.90
2019-04-30T14:09:42.751Z,24.76
2019-04-30T14:16:35.305Z,25.59
2019-04-30T14:35:35.063Z,25.57
2019-04-30T14:38:08.990Z,24.56
2019-04-30T14:41:01.003Z,24.66
2019-04-30T14:43:56.022Z,24.69
2019-04-30T14:47:12.380Z,25.09
2019-04-30T14:50:18.587Z,24.66
2019-04-30T14:53:30.611Z,24.75
2019-04-30T14:57:10.845Z,24.82
2019-04-30T14:59:39.017Z,24.35
2019-04-30T15:06:06.408Z,24.53
2019-04-30T15:08:55.732Z,24.31
2019-04-30T15:11:46.389Z,24.78
2019-04-30T15:14:41.018Z,24.50
2019-04-30T15:17:39.221Z,24.15
2019-04-30T15:20:14.530Z,24.32
2019-04-30T15:22:58.720Z,23.88
2019-04-30T15:25:38.760Z,23.74
2019-04-30T15:28:14.907Z,24.13
2019-04-30T15:30:58.777Z,24.29
2019-04-30T15:34:13.206Z,24.08
2019-04-30T15:36:59.018Z,24.74
2019-04-30T15:39:48.986Z,23.98
2019-04-30T15:42:55.089Z,23.97
2019-04-30T15:45:39.661Z,24.70
2019-04-30T15:48:40.795Z,24.19
2019-04-30T15:51:17.962Z,25.12
2019-04-30T15:53:52.648Z,24.70
2019-04-30T15:56:35.361Z,24.72
2019-04-30T15:59:28.860Z,24.66
2019-04-30T16:02:12.872Z,25.15
2019-04-30T16:05:11.863Z,24.57
2019-04-30T16:08:09.588Z,24.81
2019-04-30T16:11:00.470Z,24.81
2019-04-30T16:13:39.536Z,24.61
2019-04-30T16:16:13.298Z,24.82
2019-04-30T16:18:50.215Z,24.80
2019-04-30T16:21:23.771Z,25.16
2019-04-30T16:24:05.781Z,24.59
2019-04-30T16:26:49.930Z,24.92
2019-04-30T16:29:30.997Z,24.94
2019-04-30T16:32:04.781Z,24.81
2019-04-30T16:34:38.864Z,24.77
2019-04-30T16:37:19.996Z,24.70
2019-04-30T16:40:21.962Z,24.98
2019-04-30T16:42:58.209Z,24.87
2019-04-30T16:45:41.559Z,25.02
2019-04-30T16:48:14.904Z,25.21
2019-04-30T16:50:51.132Z,24.98
2019-04-30T16:53:25.567Z,24.58
2019-04-30T16:55:58.687Z,24.91
2019-04-30T16:58:50.413Z,24.97
2019-04-30T17:01:23.678Z,25.17
2019-04-30T17:05:11.175Z,25.29
2019-04-30T17:07:50.623Z,25.69
2019-04-30T17:11:01.359Z,26.01
2019-04-30T17:13:51.426Z,26.04
2019-04-30T17:16:26.651Z,26.57
2019-04-30T17:19:04.625Z,26.94
2019-04-30T17:21:42.678Z,26.82
2019-04-30T17:24:21.882Z,26.85
2019-04-30T17:27:19.256Z,26.99
2019-04-30T17:29:45.819Z,27.35
2019-04-30T17:32:19.089Z,27.39
2019-04-30T17:34:55.422Z,27.77
2019-04-30T17:37:31.547Z,28.15
2019-04-30T17:40:14.022Z,28.24
2019-04-30T17:42:47.533Z,28.78
2019-04-30T17:45:23.686Z,28.94
2019-04-30T17:47:58.571Z,29.11
2019-04-30T17:50:32.352Z,29.42
2019-04-30T17:53:09.076Z,29.56
2019-04-30T17:55:44.960Z,29.69
2019-04-30T17:58:20.688Z,29.84
2019-04-30T18:00:56.505Z,29.82
2019-04-30T18:03:30.121Z,29.94
2019-04-30T18:06:09.025Z,30.16
2019-04-30T18:08:43.899Z,30.22
2019-04-30T18:11:20.080Z,30.13
2019-04-30T18:13:53.738Z,30.30
2019-04-30T18:16:29.950Z,30.45
2019-04-30T18:19:10.047Z,30.61
2019-04-30T18:21:51.086Z,30.47
2019-04-30T18:24:46.298Z,30.75
2019-04-30T18:27:29.646Z,31.01
2019-04-30T18:30:12.993Z,31.35
2019-04-30T18:34:09.397Z,31.75
2019-04-30T18:37:21.401Z,31.87
2019-04-30T18:47:37.513Z,33.09
2019-04-30T18:50:29.815Z,33.56
2019-04-30T18:53:28.441Z,33.84
2019-04-30T18:56:19.150Z,33.62
2019-04-30T18:59:15.009Z,33.92
2019-04-30T19:02:19.146Z,34.23
2019-04-30T19:04:55.113Z,34.59
2019-04-30T19:07:37.022Z,34.76
2019-04-30T19:11:00.514Z,34.88
2019-04-30T19:14:24.602Z,35.12
2019-04-30T19:18:23.438Z,35.71
2019-04-30T19:24:56.084Z,36.95
2019-04-30T19:27:22.526Z,37.58
2019-04-30T19:29:59.511Z,38.16
2019-04-30T19:32:39.081Z,38.52
2019-04-30T19:35:15.858Z,38.91
2019-04-30T19:37:52.000Z,38.89
2019-04-30T19:40:28.640Z,39.22
2019-04-30T19:43:01.870Z,39.43
2019-04-30T19:45:36.805Z,39.55
2019-04-30T19:48:10.084Z,40.07
2019-04-30T19:50:43.184Z,40.23
2019-04-30T19:53:19.936Z,40.63
2019-04-30T19:55:51.955Z,40.99
2019-04-30T19:58:44.878Z,41.42
2019-04-30T20:01:01.709Z,41.76
2019-04-30T20:03:36.409Z,41.89
2019-04-30T20:06:09.939Z,42.11
2019-04-30T20:08:45.900Z,42.31
2019-04-30T20:11:18.912Z,42.66
2019-04-30T20:13:54.633Z,42.67
2019-04-30T20:16:27.723Z,42.63
2019-04-30T20:19:03.859Z,42.31
2019-04-30T20:21:48.200Z,42.67
2019-04-30T20:24:14.778Z,42.90
2019-04-30T20:26:50.221Z,42.97
2019-04-30T20:29:22.901Z,43.31
2019-04-30T20:31:56.015Z,43.35
2019-04-30T20:34:29.404Z,43.55
2019-04-30T20:37:02.681Z,43.64
2019-04-30T20:40:00.539Z,43.53
2019-04-30T20:42:33.847Z,43.61
2019-04-30T20:45:09.071Z,43.54
2019-04-30T20:47:42.822Z,43.57
2019-04-30T20:50:16.327Z,43.57
2019-04-30T20:52:49.601Z,43.36
2019-04-30T20:55:24.256Z,43.76
2019-04-30T20:57:59.348Z,43.86
2019-04-30T21:00:31.977Z,43.64
2019-04-30T21:03:05.272Z,43.89
2019-04-30T21:05:38.637Z,43.51
2019-04-30T21:08:11.806Z,43.54
2019-04-30T21:10:45.152Z,43.45
2019-04-30T21:13:19.360Z,43.31
2019-04-30T21:15:55.327Z,43.43
2019-04-30T21:18:30.528Z,43.59
2019-04-30T21:21:03.165Z,43.48
2019-04-30T21:23:36.457Z,43.38
2019-04-30T21:26:09.468Z,43.77
2019-04-30T21:28:43.307Z,43.58
2019-04-30T21:31:35.650Z,43.25
2019-04-30T21:34:15.545Z,43.16
2019-04-30T21:36:49.604Z,43.43
2019-04-30T21:39:22.795Z,43.35
2019-04-30T21:41:55.992Z,43.48
2019-04-30T21:44:29.375Z,43.59
2019-04-30T21:47:02.711Z,43.74
2019-04-30T21:49:36.288Z,43.67
2019-04-30T21:52:13.590Z,43.94
2019-04-30T21:54:48.679Z,44.10
2019-04-30T21:57:39.168Z,44.36
2019-04-30T22:00:18.523Z,44.36
2019-04-30T22:02:54.201Z,44.51
2019-04-30T22:05:31.804Z,44.65
2019-04-30T22:08:11.949Z,44.75
2019-04-30T22:10:55.564Z,44.86
2019-04-30T22:13:34.628Z,45.11
2019-04-30T22:16:10.421Z,45.18
2019-04-30T22:18:46.857Z,45.29
2019-04-30T22:21:30.449Z,45.32
2019-04-30T22:24:06.105Z,45.53
2019-04-30T22:26:41.029Z,45.23
2019-04-30T22:29:38.426Z,45.39
2019-04-30T22:32:00.447Z,45.54
2019-04-30T22:34:34.296Z,45.75
2019-04-30T22:37:08.875Z,45.83
2019-04-30T22:39:51.847Z,45.71
2019-04-30T22:42:42.331Z,45.98
2019-04-30T22:45:26.679Z,46.08
2019-04-30T22:48:00.139Z,46.14
2019-04-30T22:50:34.526Z,46.38
2019-04-30T22:53:07.993Z,46.54
2019-04-30T22:55:41.308Z,46.58
2019-04-30T22:58:15.153Z,46.39
2019-04-30T23:00:48.558Z,46.64
2019-04-30T23:03:26.002Z,46.48
2019-04-30T23:06:03.653Z,46.53
2019-04-30T23:08:37.268Z,46.42
2019-04-30T23:11:11.167Z,46.48
2019-04-30T23:13:47.994Z,46.45
2019-04-30T23:16:24.096Z,46.51
2019-04-30T23:19:02.675Z,46.50
2019-04-30T23:24:54.212Z,46.69
2019-04-30T23:27:29.013Z,46.74
2019-04-30T23:30:04.857Z,46.71
2019-04-30T23:32:54.213Z,46.80
2019-04-30T23:35:31.077Z,46.71
2019-04-30T23:38:17.506Z,47.00
2019-04-30T23:40:56.558Z,47.08
2019-04-30T23:43:35.725Z,46.89
2019-04-30T23:46:09.189Z,46.94
2019-04-30T23:48:48.518Z,47.12
2019-04-30T23:54:42.239Z,46.96
2019-04-30T23:57:16.534Z,47.60
2019-04-30T23:59:52.996Z,47.49
